createdAt,value
2018-06-11T00:00:29.950Z,4.20
2018-06-11T00:01:29.743Z,3.60
2018-06-11T00:02:29.738Z,4.50
2018-06-11T00:03:29.734Z,4.20
2018-06-11T00:04:29.729Z,4.10
2018-06-11T00:05:29.725Z,4.30
2018-06-11T00:06:29.720Z,4.10
2018-06-11T00:07:29.716Z,4.50
2018-06-11T00:08:29.712Z,4.50
2018-06-11T00:09:29.707Z,4.70
2018-06-11T00:10:29.702Z,4.30
2018-06-11T00:11:29.701Z,4.50
2018-06-11T00:12:29.693Z,4.50
2018-06-11T00:13:29.689Z,4.10
2018-06-11T00:14:29.684Z,4.90
2018-06-11T00:15:29.680Z,4.80
2018-06-11T00:16:29.681Z,4.30
2018-06-11T00:17:29.671Z,6.00
2018-06-11T00:18:29.666Z,5.30
2018-06-11T00:19:29.661Z,4.50
2018-06-11T00:20:29.659Z,4.20
2018-06-11T00:21:29.654Z,4.50
2018-06-11T00:22:29.647Z,5.50
2018-06-11T00:23:29.646Z,4.90
2018-06-11T00:24:29.641Z,5.40
2018-06-11T00:25:29.635Z,4.80
2018-06-11T00:26:29.630Z,5.80
2018-06-11T00:27:29.625Z,5.30
2018-06-11T00:28:29.620Z,5.00
2018-06-11T00:29:29.615Z,4.70
2018-06-11T00:30:29.610Z,4.90
2018-06-11T00:31:29.606Z,4.00
2018-06-11T00:32:29.601Z,5.30
2018-06-11T00:33:29.597Z,5.80
2018-06-11T00:34:29.594Z,5.30
2018-06-11T00:35:29.587Z,4.70
2018-06-11T00:36:29.583Z,5.50
2018-06-11T00:37:29.578Z,4.60
2018-06-11T00:38:29.573Z,4.80
2018-06-11T00:39:29.568Z,5.70
2018-06-11T00:40:29.567Z,5.50
2018-06-11T00:41:29.559Z,4.60
2018-06-11T00:42:29.553Z,4.80
2018-06-11T00:43:29.549Z,4.60
2018-06-11T00:44:29.545Z,5.70
2018-06-11T00:45:29.541Z,5.40
2018-06-11T00:46:29.535Z,4.80
2018-06-11T00:47:29.535Z,5.80
2018-06-11T00:48:29.525Z,5.30
2018-06-11T00:49:29.521Z,6.00
2018-06-11T00:50:29.718Z,6.30
2018-06-11T00:51:29.511Z,5.60
2018-06-11T00:52:29.506Z,5.50
2018-06-11T00:53:29.505Z,5.90
2018-06-11T00:54:29.497Z,4.70
2018-06-11T00:55:29.494Z,4.80
2018-06-11T00:56:29.489Z,5.80
2018-06-11T00:57:29.485Z,5.40
2018-06-11T00:58:29.478Z,5.20
2018-06-11T00:59:29.473Z,6.60
2018-06-11T01:00:29.475Z,5.50
2018-06-11T01:01:29.465Z,6.20
2018-06-11T01:02:29.459Z,5.70
2018-06-11T01:03:29.454Z,5.10
2018-06-11T01:04:29.450Z,5.10
2018-06-11T01:05:29.445Z,6.40
2018-06-11T01:06:29.439Z,5.30
2018-06-11T01:07:29.435Z,5.40
2018-06-11T01:08:29.430Z,5.40
2018-06-11T01:09:29.426Z,5.90
2018-06-11T01:10:29.623Z,5.90
2018-06-11T01:11:29.416Z,6.10
2018-06-11T01:12:29.411Z,5.90
2018-06-11T01:13:29.406Z,5.90
2018-06-11T01:14:29.400Z,6.10
2018-06-11T01:15:29.399Z,6.30
2018-06-11T01:16:29.391Z,5.50
2018-06-11T01:17:29.387Z,6.30
2018-06-11T01:18:29.384Z,5.70
2018-06-11T01:19:29.376Z,5.60
2018-06-11T01:20:29.376Z,6.40
2018-06-11T01:21:29.369Z,6.20
2018-06-11T01:22:29.364Z,6.80
2018-06-11T01:23:29.357Z,7.20
2018-06-11T01:24:29.354Z,6.10
2018-06-11T01:25:29.347Z,6.60
2018-06-11T01:26:29.342Z,6.60
2018-06-11T01:27:29.337Z,5.70
2018-06-11T01:28:29.332Z,6.10
2018-06-11T01:29:29.329Z,6.10
2018-06-11T01:30:29.326Z,5.60
2018-06-11T01:31:29.322Z,6.10
2018-06-11T01:32:29.313Z,6.80
2018-06-11T01:33:29.316Z,6.10
2018-06-11T01:34:29.302Z,7.30
2018-06-11T01:35:29.297Z,6.30
2018-06-11T01:36:29.293Z,5.40
2018-06-11T01:37:29.294Z,6.20
2018-06-11T01:38:29.282Z,6.20
2018-06-11T01:39:29.277Z,6.30
2018-06-11T01:40:29.274Z,7.10
2018-06-11T01:41:29.268Z,6.70
2018-06-11T01:42:29.262Z,6.00
2018-06-11T01:43:29.257Z,6.60
2018-06-11T01:44:29.253Z,6.30
2018-06-11T01:45:29.247Z,6.70
2018-06-11T01:46:29.242Z,6.40
2018-06-11T01:47:29.237Z,7.10
2018-06-11T01:48:29.232Z,7.30
2018-06-11T01:49:29.228Z,6.90
2018-06-11T01:50:29.222Z,6.50
2018-06-11T01:51:29.218Z,7.90
2018-06-11T01:52:29.212Z,6.60
2018-06-11T01:53:29.211Z,6.20
2018-06-11T01:54:29.207Z,7.20
2018-06-11T01:55:29.196Z,7.90
2018-06-11T01:56:29.191Z,7.20
2018-06-11T01:57:29.188Z,7.40
2018-06-11T01:58:29.180Z,7.00
2018-06-11T01:59:29.175Z,7.30
2018-06-11T02:00:29.173Z,7.30
2018-06-11T02:01:29.170Z,7.10
2018-06-11T02:02:29.163Z,6.60
2018-06-11T02:03:29.155Z,7.00
2018-06-11T02:04:29.150Z,6.70
2018-06-11T02:05:29.146Z,7.30
2018-06-11T02:06:29.139Z,6.70
2018-06-11T02:07:29.137Z,6.50
2018-06-11T02:08:29.129Z,7.10
2018-06-11T02:09:29.124Z,6.80
2018-06-11T02:10:29.118Z,7.10
2018-06-11T02:11:29.115Z,6.80
2018-06-11T02:12:29.109Z,7.10
2018-06-11T02:13:29.105Z,7.20
2018-06-11T02:14:29.097Z,6.50
2018-06-11T02:15:29.092Z,6.50
2018-06-11T02:16:29.088Z,7.30
2018-06-11T02:17:29.082Z,6.60
2018-06-11T02:18:29.076Z,7.30
2018-06-11T02:19:29.071Z,7.00
2018-06-11T02:20:29.067Z,7.70
2018-06-11T02:21:29.067Z,6.80
2018-06-11T02:22:29.055Z,6.30
2018-06-11T02:23:29.051Z,7.40
2018-06-11T02:24:29.045Z,7.50
2018-06-11T02:25:29.040Z,7.50
2018-06-11T02:26:29.034Z,7.40
2018-06-11T02:27:29.032Z,7.00
2018-06-11T02:28:29.024Z,7.10
2018-06-11T02:29:29.019Z,6.90
2018-06-11T02:30:29.014Z,7.50
2018-06-11T02:31:29.009Z,7.90
2018-06-11T02:32:29.006Z,8.00
2018-06-11T02:33:29.002Z,7.20
2018-06-11T02:34:28.992Z,6.70
2018-06-11T02:35:28.988Z,7.50
2018-06-11T02:36:28.982Z,7.00
2018-06-11T02:37:28.977Z,8.40
2018-06-11T02:38:28.972Z,7.40
2018-06-11T02:39:28.965Z,7.00
2018-06-11T02:40:28.961Z,7.40
2018-06-11T02:41:28.955Z,7.50
2018-06-11T02:42:28.949Z,8.30
2018-06-11T02:43:28.946Z,7.40
2018-06-11T02:44:28.939Z,8.00
2018-06-11T02:45:28.934Z,7.90
2018-06-11T02:46:28.930Z,8.00
2018-06-11T02:47:28.922Z,8.40
2018-06-11T02:48:28.917Z,8.00
2018-06-11T02:49:28.912Z,7.20
2018-06-11T02:50:28.906Z,7.70
2018-06-11T02:51:28.904Z,7.70
2018-06-11T02:52:28.895Z,7.70
2018-06-11T02:53:28.898Z,7.40
2018-06-11T02:54:29.086Z,7.20
2018-06-11T02:55:28.883Z,8.20
2018-06-11T02:56:28.879Z,8.20
2018-06-11T02:57:28.868Z,7.70
2018-06-11T02:58:28.863Z,7.90
2018-06-11T02:59:28.862Z,7.40
2018-06-11T03:00:28.852Z,7.20
2018-06-11T03:01:28.847Z,7.10
2018-06-11T03:02:28.840Z,6.80
2018-06-11T03:03:28.840Z,8.00
2018-06-11T03:04:29.035Z,7.40
2018-06-11T03:05:28.825Z,7.00
2018-06-11T03:06:28.819Z,7.70
2018-06-11T03:07:28.818Z,6.10
2018-06-11T03:08:28.808Z,8.00
2018-06-11T03:09:28.803Z,7.40
2018-06-11T03:10:28.798Z,7.50
2018-06-11T03:11:28.791Z,6.30
2018-06-11T03:12:28.787Z,6.50
2018-06-11T03:13:28.780Z,7.10
2018-06-11T03:14:28.775Z,7.30
2018-06-11T03:15:28.850Z,6.60
2018-06-11T03:16:28.764Z,6.80
2018-06-11T03:17:28.759Z,7.40
2018-06-11T03:18:28.959Z,6.70
2018-06-11T03:19:28.748Z,7.40
2018-06-11T03:20:28.742Z,7.50
2018-06-11T03:21:28.737Z,7.20
2018-06-11T03:22:28.732Z,7.30
2018-06-11T03:23:28.729Z,8.00
2018-06-11T03:24:28.719Z,7.70
2018-06-11T03:25:28.714Z,7.40
2018-06-11T03:26:28.708Z,6.50
2018-06-11T03:27:28.701Z,7.10
2018-06-11T03:28:28.696Z,6.70
2018-06-11T03:29:28.691Z,7.80
2018-06-11T03:30:28.690Z,7.50
2018-06-11T03:31:28.679Z,6.90
2018-06-11T03:32:28.677Z,7.90
2018-06-11T03:33:28.668Z,8.10
2018-06-11T03:34:28.661Z,7.90
2018-06-11T03:35:28.660Z,8.20
2018-06-11T03:36:28.654Z,6.10
2018-06-11T03:37:28.649Z,7.40
2018-06-11T03:38:28.638Z,7.90
2018-06-11T03:39:28.632Z,7.30
2018-06-11T03:40:28.627Z,6.90
2018-06-11T03:41:28.621Z,8.60
2018-06-11T03:42:28.615Z,8.30
2018-06-11T03:43:28.613Z,8.20
2018-06-11T03:44:28.605Z,8.70
2018-06-11T03:45:28.598Z,8.60
2018-06-11T03:46:28.594Z,8.00
2018-06-11T03:47:28.587Z,7.50
2018-06-11T03:48:28.582Z,8.60
2018-06-11T03:49:28.580Z,8.70
2018-06-11T03:50:28.573Z,8.40
2018-06-11T03:51:28.563Z,7.70
2018-06-11T03:52:28.557Z,7.60
2018-06-11T03:53:28.552Z,7.50
2018-06-11T03:54:28.546Z,7.70
2018-06-11T03:55:28.540Z,7.80
2018-06-11T03:56:28.535Z,8.30
2018-06-11T03:57:28.533Z,7.70
2018-06-11T03:58:28.523Z,8.50
2018-06-11T03:59:28.518Z,8.70
2018-06-11T04:00:28.517Z,8.50
2018-06-11T04:01:28.511Z,7.70
2018-06-11T04:02:28.501Z,8.10
2018-06-11T04:03:28.496Z,7.70
2018-06-11T04:04:28.490Z,8.40
2018-06-11T04:05:28.487Z,8.50
2018-06-11T04:06:28.479Z,8.40
2018-06-11T04:07:28.477Z,8.30
2018-06-11T04:08:28.470Z,7.70
2018-06-11T04:09:28.463Z,9.90
2018-06-11T04:10:28.664Z,8.30
2018-06-11T04:11:28.455Z,8.40
2018-06-11T04:12:28.447Z,9.30
2018-06-11T04:13:28.443Z,8.90
2018-06-11T04:14:28.638Z,8.50
2018-06-11T04:15:28.430Z,8.40
2018-06-11T04:16:28.424Z,9.90
2018-06-11T04:17:28.420Z,8.00
2018-06-11T04:18:28.416Z,9.10
2018-06-11T04:19:28.449Z,8.70
2018-06-11T04:20:28.403Z,7.50
2018-06-11T04:21:28.397Z,7.30
2018-06-11T04:22:28.396Z,8.90
2018-06-11T04:23:28.387Z,9.30
2018-06-11T04:24:28.382Z,8.70
2018-06-11T04:25:28.377Z,8.90
2018-06-11T04:26:28.370Z,7.90
2018-06-11T04:27:28.365Z,8.40
2018-06-11T04:28:28.360Z,7.70
2018-06-11T04:29:28.358Z,7.80
2018-06-11T04:30:28.349Z,9.10
2018-06-11T04:31:28.345Z,9.20
2018-06-11T04:32:28.339Z,10.00
2018-06-11T04:33:28.337Z,8.20
2018-06-11T04:34:28.328Z,8.90
2018-06-11T04:35:28.323Z,9.10
2018-06-11T04:36:28.318Z,8.10
2018-06-11T04:37:28.321Z,8.40
2018-06-11T04:38:28.307Z,9.40
2018-06-11T04:39:28.305Z,8.40
2018-06-11T04:40:28.298Z,7.30
2018-06-11T04:41:28.296Z,8.40
2018-06-11T04:42:28.289Z,8.80
2018-06-11T04:43:28.282Z,9.40
2018-06-11T04:44:28.277Z,8.50
2018-06-11T04:45:28.274Z,8.60
2018-06-11T04:46:28.266Z,8.60
2018-06-11T04:47:28.261Z,8.80
2018-06-11T04:48:28.256Z,7.50
2018-06-11T04:49:28.251Z,7.70
2018-06-11T04:50:28.447Z,8.40
2018-06-11T04:51:28.242Z,9.10
2018-06-11T04:52:28.236Z,9.10
2018-06-11T04:53:28.258Z,8.00
2018-06-11T04:54:28.228Z,7.90
2018-06-11T04:55:28.223Z,7.90
2018-06-11T04:56:28.216Z,8.20
2018-06-11T04:57:28.211Z,8.70
2018-06-11T04:58:28.209Z,9.20
2018-06-11T04:59:28.205Z,9.80
2018-06-11T05:00:28.198Z,8.20
2018-06-11T05:01:28.197Z,7.10
2018-06-11T05:02:28.195Z,9.10
2018-06-11T05:04:28.177Z,9.30
2018-06-11T05:05:28.171Z,8.60
2018-06-11T05:06:28.172Z,8.30
2018-06-11T05:07:28.161Z,8.80
2018-06-11T05:08:28.159Z,9.00
2018-06-11T05:09:28.151Z,9.30
2018-06-11T05:10:28.146Z,8.40
2018-06-11T05:11:28.147Z,8.50
2018-06-11T05:12:28.137Z,8.20
2018-06-11T05:13:28.338Z,8.00
2018-06-11T05:14:28.130Z,8.30
2018-06-11T05:15:28.129Z,7.50
2018-06-11T05:16:28.119Z,8.20
2018-06-11T05:17:28.119Z,7.80
2018-06-11T05:18:28.112Z,8.10
2018-06-11T05:19:28.110Z,8.30
2018-06-11T05:20:28.102Z,8.30
2018-06-11T05:21:28.098Z,8.60
2018-06-11T05:22:28.092Z,9.50
2018-06-11T05:23:28.091Z,7.90
2018-06-11T05:24:28.085Z,8.30
2018-06-11T05:25:28.081Z,8.00
2018-06-11T05:26:28.074Z,8.90
2018-06-11T05:27:28.071Z,8.50
2018-06-11T05:28:28.066Z,8.60
2018-06-11T05:29:28.062Z,7.80
2018-06-11T05:30:28.059Z,8.70
2018-06-11T05:31:28.054Z,7.50
2018-06-11T05:32:28.049Z,8.80
2018-06-11T05:33:28.046Z,8.30
2018-06-11T05:34:28.047Z,8.40
2018-06-11T05:35:28.037Z,7.60
2018-06-11T05:36:28.033Z,7.90
2018-06-11T05:37:28.034Z,7.70
2018-06-11T05:38:28.030Z,9.70
2018-06-11T05:39:28.021Z,7.80
2018-06-11T05:40:28.143Z,8.80
2018-06-11T05:41:28.014Z,7.90
2018-06-11T05:42:28.011Z,8.80
2018-06-11T05:43:28.011Z,8.00
2018-06-11T05:44:28.002Z,9.00
2018-06-11T05:45:28.003Z,8.40
2018-06-11T05:46:27.995Z,8.80
2018-06-11T05:47:27.993Z,10.30
2018-06-11T05:48:27.988Z,8.80
2018-06-11T05:49:27.987Z,9.60
2018-06-11T05:50:27.979Z,9.50
2018-06-11T05:51:27.974Z,9.80
2018-06-11T05:52:27.974Z,9.80
2018-06-11T05:53:28.011Z,10.60
2018-06-11T05:54:27.966Z,9.40
2018-06-11T05:55:27.962Z,10.00
2018-06-11T05:56:27.956Z,8.80
2018-06-11T05:57:27.960Z,9.50
2018-06-11T05:58:27.947Z,10.50
2018-06-11T05:59:27.945Z,10.10
2018-06-11T06:00:27.939Z,10.30
2018-06-11T06:01:27.935Z,10.30
2018-06-11T06:02:27.930Z,11.60
2018-06-11T06:03:27.930Z,9.70
2018-06-11T06:04:27.923Z,11.00
2018-06-11T06:05:27.921Z,9.90
2018-06-11T06:06:27.915Z,8.20
2018-06-11T06:07:27.915Z,9.70
2018-06-11T06:08:27.908Z,9.20
2018-06-11T06:09:27.907Z,10.40
2018-06-11T06:10:27.904Z,10.10
2018-06-11T06:11:27.898Z,9.70
2018-06-11T06:12:27.893Z,9.60
2018-06-11T06:13:27.888Z,9.20
2018-06-11T06:14:27.892Z,9.40
2018-06-11T06:15:27.882Z,8.40
2018-06-11T06:16:27.877Z,9.10
2018-06-11T06:17:27.875Z,8.80
2018-06-11T06:18:27.868Z,9.20
2018-06-11T06:19:27.865Z,9.80
2018-06-11T06:20:27.862Z,8.30
2018-06-11T06:21:27.861Z,7.60
2018-06-11T06:22:27.856Z,7.80
2018-06-11T06:23:27.853Z,8.30
2018-06-11T06:24:27.847Z,8.50
2018-06-11T06:25:27.844Z,7.40
2018-06-11T06:26:27.842Z,8.00
2018-06-11T06:27:27.837Z,7.60
2018-06-11T06:28:27.834Z,8.10
2018-06-11T06:29:27.831Z,8.00
2018-06-11T06:30:27.829Z,8.10
2018-06-11T06:31:28.033Z,8.50
2018-06-11T06:32:27.826Z,7.90
2018-06-11T06:33:27.825Z,7.20
2018-06-11T06:34:27.932Z,7.70
2018-06-11T06:35:27.818Z,7.40
2018-06-11T06:36:27.811Z,7.20
2018-06-11T06:37:27.811Z,8.90
2018-06-11T06:38:27.804Z,8.90
2018-06-11T06:39:27.804Z,9.30
2018-06-11T06:40:27.852Z,8.70
2018-06-11T06:41:27.800Z,8.90
2018-06-11T06:42:27.795Z,6.70
2018-06-11T06:43:27.791Z,7.90
2018-06-11T06:44:27.791Z,8.30
2018-06-11T06:45:27.787Z,8.40
2018-06-11T06:46:27.788Z,8.90
2018-06-11T06:47:27.785Z,8.00
2018-06-11T06:48:27.780Z,7.90
2018-06-11T06:49:27.779Z,7.50
2018-06-11T06:50:27.777Z,7.90
2018-06-11T06:51:27.776Z,7.60
2018-06-11T06:52:27.769Z,7.60
2018-06-11T06:53:27.769Z,8.20
2018-06-11T06:54:27.765Z,7.70
2018-06-11T06:55:27.764Z,7.50
2018-06-11T06:56:27.761Z,8.20
2018-06-11T06:57:27.760Z,7.90
2018-06-11T06:58:27.762Z,7.60
2018-06-11T06:59:27.758Z,7.50
2018-06-11T07:00:27.757Z,7.50
2018-06-11T07:01:27.753Z,7.30
2018-06-11T07:02:27.751Z,7.20
2018-06-11T07:03:27.749Z,6.90
2018-06-11T07:04:27.749Z,7.50
2018-06-11T07:05:27.748Z,6.80
2018-06-11T07:06:27.746Z,7.30
2018-06-11T07:07:27.745Z,6.90
2018-06-11T07:08:27.745Z,6.60
2018-06-11T07:09:27.744Z,6.60
2018-06-11T07:10:27.742Z,6.50
2018-06-11T07:11:27.742Z,6.40
2018-06-11T07:12:27.741Z,6.30
2018-06-11T07:13:27.743Z,6.00
2018-06-11T07:14:27.738Z,5.40
2018-06-11T07:15:27.737Z,5.90
2018-06-11T07:16:27.738Z,6.30
2018-06-11T07:17:27.736Z,5.20
2018-06-11T07:18:27.733Z,6.40
2018-06-11T07:19:27.732Z,6.30
2018-06-11T07:20:27.731Z,6.70
2018-06-11T07:21:27.730Z,6.30
2018-06-11T07:22:27.728Z,5.80
2018-06-11T07:23:27.727Z,5.60
2018-06-11T07:24:27.726Z,6.70
2018-06-11T07:25:27.726Z,6.30
2018-06-11T07:26:27.725Z,6.00
2018-06-11T07:27:27.724Z,5.70
2018-06-11T07:28:27.722Z,6.20
2018-06-11T07:29:27.722Z,6.30
2018-06-11T07:30:27.720Z,6.70
2018-06-11T07:31:27.724Z,6.00
2018-06-11T07:32:27.772Z,6.30
2018-06-11T07:33:27.727Z,4.80
2018-06-11T07:34:27.716Z,6.40
2018-06-11T07:35:27.718Z,5.50
2018-06-11T07:36:27.714Z,5.70
2018-06-11T07:37:27.718Z,5.30
2018-06-11T07:38:27.914Z,6.00
2018-06-11T07:39:27.717Z,5.10
2018-06-11T07:40:27.709Z,6.00
2018-06-11T07:41:27.716Z,5.90
2018-06-11T07:42:27.707Z,5.90
2018-06-11T07:43:27.706Z,5.80
2018-06-11T07:44:27.708Z,5.20
2018-06-11T07:45:27.704Z,5.00
2018-06-11T07:46:27.702Z,5.50
2018-06-11T07:47:27.702Z,6.20
2018-06-11T07:48:27.704Z,5.60
2018-06-11T07:49:27.704Z,5.30
2018-06-11T07:50:27.702Z,5.40
2018-06-11T07:51:27.700Z,5.40
2018-06-11T07:52:27.705Z,5.80
2018-06-11T07:53:27.703Z,5.80
2018-06-11T07:54:27.699Z,5.40
2018-06-11T07:55:27.699Z,4.90
2018-06-11T07:56:27.700Z,5.10
2018-06-11T07:57:27.706Z,5.00
2018-06-11T07:58:27.700Z,5.10
2018-06-11T07:59:27.700Z,5.10
2018-06-11T08:00:27.701Z,5.70
2018-06-11T08:01:27.760Z,5.70
2018-06-11T08:02:27.702Z,5.50
2018-06-11T08:03:27.709Z,5.40
2018-06-11T08:04:27.708Z,5.40
2018-06-11T08:05:27.909Z,5.90
2018-06-11T08:06:27.709Z,5.00
2018-06-11T08:07:27.731Z,5.50
2018-06-11T08:08:27.718Z,5.70
2018-06-11T08:09:27.715Z,5.00
2018-06-11T08:10:27.715Z,6.00
2018-06-11T08:11:27.718Z,4.60
2018-06-11T08:12:27.721Z,5.50
2018-06-11T08:13:27.787Z,5.20
2018-06-11T08:14:27.725Z,5.40
2018-06-11T08:15:27.727Z,5.30
2018-06-11T08:16:27.727Z,5.00
2018-06-11T08:17:27.931Z,4.90
2018-06-11T08:18:27.729Z,5.50
2018-06-11T08:19:27.732Z,5.70
2018-06-11T08:20:27.733Z,6.00
2018-06-11T08:21:27.735Z,6.20
2018-06-11T08:22:27.741Z,5.20
2018-06-11T08:23:27.741Z,5.80
2018-06-11T08:25:27.743Z,5.40
2018-06-11T08:26:27.747Z,5.40
2018-06-11T08:27:27.783Z,5.80
2018-06-11T08:28:27.753Z,5.20
2018-06-11T08:29:27.756Z,5.20
2018-06-11T08:30:27.757Z,4.80
2018-06-11T08:31:27.760Z,6.30
2018-06-11T08:32:27.766Z,6.40
2018-06-11T08:33:27.967Z,5.80
2018-06-11T08:34:27.767Z,5.40
2018-06-11T08:35:27.772Z,5.90
2018-06-11T08:36:27.773Z,5.60
2018-06-11T08:37:27.775Z,6.30
2018-06-11T08:38:27.776Z,5.30
2018-06-11T08:39:27.779Z,5.60
2018-06-11T08:40:27.782Z,5.20
2018-06-11T08:41:27.784Z,5.70
2018-06-11T08:42:27.787Z,5.40
2018-06-11T08:43:27.790Z,4.90
2018-06-11T08:44:27.792Z,5.00
2018-06-11T08:45:27.799Z,6.20
2018-06-11T08:46:27.797Z,5.50
2018-06-11T08:47:27.799Z,5.80
2018-06-11T08:48:27.802Z,5.70
2018-06-11T08:49:27.804Z,5.50
2018-06-11T08:50:27.811Z,6.60
2018-06-11T08:51:27.807Z,5.50
2018-06-11T08:52:27.809Z,5.60
2018-06-11T08:53:27.815Z,5.30
2018-06-11T08:54:27.816Z,5.70
2018-06-11T08:55:27.813Z,5.80
2018-06-11T08:56:27.820Z,4.80
2018-06-11T08:57:27.818Z,5.60
2018-06-11T08:58:27.821Z,5.70
2018-06-11T08:59:27.821Z,5.70
2018-06-11T09:00:27.827Z,6.10
2018-06-11T09:01:27.827Z,6.10
2018-06-11T09:02:27.829Z,4.70
2018-06-11T09:03:27.834Z,5.90
2018-06-11T09:04:27.836Z,5.80
2018-06-11T09:05:27.839Z,4.60
2018-06-11T09:06:27.842Z,5.40
2018-06-11T09:07:27.847Z,4.50
2018-06-11T09:08:27.849Z,5.10
2018-06-11T09:09:27.853Z,4.70
2018-06-11T09:10:27.856Z,4.50
2018-06-11T09:11:27.864Z,5.40
2018-06-11T09:12:27.866Z,4.00
2018-06-11T09:13:28.074Z,4.60
2018-06-11T09:14:27.873Z,4.20
2018-06-11T09:15:27.881Z,4.80
2018-06-11T09:16:27.883Z,4.40
2018-06-11T09:17:27.891Z,5.40
2018-06-11T09:18:28.063Z,5.20
2018-06-11T09:19:27.896Z,4.40
2018-06-11T09:20:27.901Z,4.90
2018-06-11T09:21:27.906Z,4.40
2018-06-11T09:22:27.911Z,4.50
2018-06-11T09:23:27.919Z,4.30
2018-06-11T09:24:27.925Z,4.80
2018-06-11T09:25:27.930Z,5.40
2018-06-11T09:26:27.930Z,5.30
2018-06-11T09:27:27.937Z,4.60
2018-06-11T09:28:27.944Z,4.40
2018-06-11T09:29:27.948Z,5.30
2018-06-11T09:30:27.951Z,4.90
2018-06-11T09:31:27.958Z,5.70
2018-06-11T09:32:27.965Z,5.00
2018-06-11T09:33:27.972Z,4.10
2018-06-11T09:34:27.973Z,5.20
2018-06-11T09:35:27.978Z,5.10
2018-06-11T09:36:27.984Z,4.90
2018-06-11T09:37:27.993Z,4.40
2018-06-11T09:38:27.995Z,4.50
2018-06-11T09:39:28.003Z,4.50
2018-06-11T09:40:28.010Z,3.80
2018-06-11T09:41:28.015Z,4.90
2018-06-11T09:42:28.020Z,4.90
2018-06-11T09:43:28.028Z,4.40
2018-06-11T09:44:28.033Z,4.40
2018-06-11T09:45:28.042Z,4.40
2018-06-11T09:46:28.045Z,4.90
2018-06-11T09:47:28.052Z,4.70
2018-06-11T09:48:28.059Z,4.90
2018-06-11T09:49:28.073Z,5.50
2018-06-11T09:50:28.072Z,5.60
2018-06-11T09:51:28.080Z,5.60
2018-06-11T09:52:28.089Z,5.40
2018-06-11T09:53:28.095Z,5.40
2018-06-11T09:54:28.104Z,5.60
2018-06-11T09:55:28.110Z,5.00
2018-06-11T09:56:28.124Z,4.70
2018-06-11T09:57:28.132Z,4.40
2018-06-11T09:58:28.340Z,4.10
2018-06-11T09:59:28.153Z,4.40
2018-06-11T10:00:28.158Z,4.00
2018-06-11T10:01:28.168Z,4.20
2018-06-11T10:02:28.180Z,4.40
2018-06-11T10:03:28.188Z,5.10
2018-06-11T10:04:28.200Z,4.60
2018-06-11T10:05:28.256Z,4.30
2018-06-11T10:06:28.223Z,4.60
2018-06-11T10:07:28.232Z,4.00
2018-06-11T10:08:28.251Z,4.00
2018-06-11T10:09:28.255Z,4.10
2018-06-11T10:10:28.264Z,3.70
2018-06-11T10:11:28.277Z,4.50
2018-06-11T10:12:28.335Z,4.30
2018-06-11T10:13:28.303Z,4.50
2018-06-11T10:14:28.305Z,4.50
2018-06-11T10:15:28.527Z,4.40
2018-06-11T10:16:28.325Z,4.40
2018-06-11T10:17:28.537Z,4.90
2018-06-11T10:18:28.344Z,5.00
2018-06-11T10:19:28.354Z,4.50
2018-06-11T10:20:28.366Z,4.90
2018-06-11T10:21:28.372Z,5.10
2018-06-11T10:22:28.381Z,4.40
2018-06-11T10:23:28.395Z,4.10
2018-06-11T10:24:28.402Z,3.40
2018-06-11T10:25:28.611Z,3.60
2018-06-11T10:26:28.417Z,3.70
2018-06-11T10:27:28.426Z,3.50
2018-06-11T10:28:28.436Z,3.50
2018-06-11T10:29:28.446Z,4.20
2018-06-11T10:30:28.454Z,4.20
2018-06-11T10:31:28.465Z,3.80
2018-06-11T10:32:28.476Z,3.00
2018-06-11T10:33:28.485Z,3.60
2018-06-11T10:34:28.493Z,3.70
2018-06-11T10:35:28.506Z,3.20
2018-06-11T10:36:28.514Z,2.90
2018-06-11T10:37:28.525Z,3.50
2018-06-11T10:38:28.541Z,3.30
2018-06-11T10:39:28.551Z,3.80
2018-06-11T10:40:28.561Z,3.10
2018-06-11T10:41:28.576Z,3.40
2018-06-11T10:42:28.581Z,3.10
2018-06-11T10:43:28.595Z,3.60
2018-06-11T10:44:28.608Z,3.20
2018-06-11T10:45:28.634Z,3.80
2018-06-11T10:46:28.630Z,3.40
2018-06-11T10:47:28.642Z,3.80
2018-06-11T10:48:28.660Z,3.40
2018-06-11T10:49:28.673Z,3.90
2018-06-11T10:50:28.679Z,3.60
2018-06-11T10:51:28.899Z,4.10
2018-06-11T10:52:28.704Z,4.00
2018-06-11T10:53:28.717Z,3.80
2018-06-11T10:54:28.731Z,4.00
2018-06-11T10:55:28.746Z,3.90
2018-06-11T10:56:28.755Z,4.40
2018-06-11T10:57:28.767Z,4.30
2018-06-11T10:58:28.780Z,3.60
2018-06-11T10:59:28.800Z,3.30
2018-06-11T11:00:28.806Z,4.10
2018-06-11T11:01:28.819Z,3.70
2018-06-11T11:02:28.831Z,4.00
2018-06-11T11:03:29.046Z,3.20
2018-06-11T11:04:28.865Z,2.80
2018-06-11T11:05:28.871Z,3.40
2018-06-11T11:06:28.884Z,3.00
2018-06-11T11:07:28.896Z,3.10
2018-06-11T11:08:28.912Z,3.50
2018-06-11T11:09:28.924Z,3.40
2018-06-11T11:10:28.936Z,4.10
2018-06-11T11:11:28.949Z,3.90
2018-06-11T11:12:28.989Z,3.60
2018-06-11T11:13:28.977Z,4.40
2018-06-11T11:14:28.990Z,4.20
2018-06-11T11:15:29.003Z,3.60
2018-06-11T11:16:29.024Z,3.70
2018-06-11T11:17:29.033Z,3.60
2018-06-11T11:18:29.051Z,4.10
2018-06-11T11:19:29.056Z,4.00
2018-06-11T11:20:29.070Z,3.60
2018-06-11T11:21:29.084Z,4.10
2018-06-11T11:22:29.101Z,3.80
2018-06-11T11:23:29.109Z,4.20
2018-06-11T11:24:29.125Z,3.20
2018-06-11T11:25:29.136Z,3.90
2018-06-11T11:26:29.148Z,4.00
2018-06-11T11:27:29.161Z,4.30
2018-06-11T11:28:29.183Z,4.10
2018-06-11T11:29:29.194Z,4.00
2018-06-11T11:30:29.200Z,3.90
2018-06-11T11:31:29.215Z,3.40
2018-06-11T11:32:29.224Z,3.70
2018-06-11T11:33:29.237Z,4.10
2018-06-11T11:34:29.251Z,4.20
2018-06-11T11:35:29.261Z,3.80
2018-06-11T11:36:29.273Z,3.50
2018-06-11T11:37:29.288Z,3.10
2018-06-11T11:38:29.297Z,3.20
2018-06-11T11:39:29.312Z,3.10
2018-06-11T11:40:29.321Z,3.20
2018-06-11T11:41:29.334Z,3.80
2018-06-11T11:42:29.347Z,4.10
2018-06-11T11:43:29.354Z,3.20
2018-06-11T11:44:29.370Z,3.90
2018-06-11T11:45:29.382Z,3.90
2018-06-11T11:46:29.386Z,4.50
2018-06-11T11:47:29.601Z,4.00
2018-06-11T11:48:29.409Z,4.60
2018-06-11T11:49:29.418Z,3.90
2018-06-11T11:50:29.428Z,3.60
2018-06-11T11:51:29.438Z,3.70
2018-06-11T11:52:29.449Z,4.10
2018-06-11T11:53:29.458Z,4.00
2018-06-11T11:54:29.467Z,3.60
2018-06-11T11:55:29.477Z,3.00
2018-06-11T11:56:29.488Z,2.60
2018-06-11T11:57:29.526Z,3.00
2018-06-11T11:58:29.509Z,3.60
2018-06-11T11:59:29.514Z,3.00
2018-06-11T12:00:29.527Z,3.10
2018-06-11T12:01:29.531Z,3.60
2018-06-11T12:02:29.539Z,3.30
2018-06-11T12:03:29.548Z,3.60
2018-06-11T12:04:29.559Z,2.90
2018-06-11T12:05:29.565Z,3.40
2018-06-11T12:06:29.572Z,2.90
2018-06-11T12:07:29.582Z,2.60
2018-06-11T12:08:29.589Z,2.90
2018-06-11T12:09:29.598Z,2.90
2018-06-11T12:10:29.605Z,2.80
2018-06-11T12:11:29.614Z,3.10
2018-06-11T12:12:29.624Z,3.50
2018-06-11T12:13:29.631Z,4.30
2018-06-11T12:14:29.639Z,3.70
2018-06-11T12:15:29.653Z,3.00
2018-06-11T12:16:29.659Z,3.70
2018-06-11T12:17:29.667Z,3.40
2018-06-11T12:18:29.675Z,3.40
2018-06-11T12:19:29.686Z,3.30
2018-06-11T12:20:29.696Z,3.70
2018-06-11T12:21:29.704Z,3.40
2018-06-11T12:22:29.712Z,4.20
2018-06-11T12:23:29.719Z,3.80
2018-06-11T12:24:29.731Z,3.60
2018-06-11T12:25:29.737Z,3.60
2018-06-11T12:26:29.752Z,3.30
2018-06-11T12:27:29.755Z,3.50
2018-06-11T12:28:29.765Z,3.20
2018-06-11T12:29:29.774Z,3.00
2018-06-11T12:30:29.790Z,3.30
2018-06-11T12:31:29.793Z,3.20
2018-06-11T12:32:29.806Z,3.30
2018-06-11T12:33:29.812Z,3.60
2018-06-11T12:34:29.823Z,3.80
2018-06-11T12:35:29.832Z,3.40
2018-06-11T12:36:29.843Z,3.70
2018-06-11T12:37:29.859Z,3.80
2018-06-11T12:38:29.863Z,3.70
2018-06-11T12:39:29.873Z,3.00
2018-06-11T12:40:29.884Z,3.60
2018-06-11T12:41:29.902Z,3.10
2018-06-11T12:42:29.904Z,3.20
2018-06-11T12:43:29.920Z,2.80
2018-06-11T12:44:29.926Z,3.10
2018-06-11T12:45:29.934Z,2.60
2018-06-11T12:46:29.942Z,3.00
2018-06-11T12:47:29.955Z,3.20
2018-06-11T12:48:29.965Z,3.40
2018-06-11T12:49:29.969Z,3.00
2018-06-11T12:50:29.978Z,3.20
2018-06-11T12:51:29.991Z,2.00
2018-06-11T12:52:29.995Z,2.80
2018-06-11T12:53:30.009Z,3.60
2018-06-11T12:54:30.011Z,2.40
2018-06-11T12:55:30.023Z,3.00
2018-06-11T12:56:30.031Z,3.00
2018-06-11T12:57:30.035Z,2.70
2018-06-11T12:58:30.045Z,2.70
2018-06-11T12:59:30.052Z,2.80
2018-06-11T13:00:30.057Z,2.60
2018-06-11T13:01:30.080Z,3.10
2018-06-11T13:02:30.073Z,2.70
2018-06-11T13:03:30.077Z,2.90
2018-06-11T13:04:30.088Z,2.50
2018-06-11T13:05:30.092Z,2.60
2018-06-11T13:06:30.100Z,2.50
2018-06-11T13:07:30.105Z,2.50
2018-06-11T13:08:30.113Z,2.20
2018-06-11T13:09:30.122Z,3.30
2018-06-11T13:10:30.124Z,2.90
2018-06-11T13:11:30.130Z,3.30
2018-06-11T13:12:30.136Z,3.00
2018-06-11T13:13:30.141Z,3.40
2018-06-11T13:14:30.147Z,2.70
2018-06-11T13:15:30.153Z,2.80
2018-06-11T13:16:30.158Z,2.50
2018-06-11T13:17:30.163Z,2.70
2018-06-11T13:18:30.168Z,2.70
2018-06-11T13:19:30.173Z,2.60
2018-06-11T13:20:30.179Z,3.20